sensor_id;sensor_type;location;lat;lon;timestamp;pressure;altitude;pressure_sealevel;temperature;humidity
64019;BME280;66942;52.138;5.216;2023-02-20T00:01:11;102521.0;;;9.75;67.8
64019;BME280;66942;52.138;5.216;2023-02-20T00:02:48;102515.00000000001;;;10.06;66.99
64019;BME280;66942;52.138;5.216;2023-02-20T00:04:26;102508.0;;;9.97;67.19
64019;BME280;66942;52.138;5.216;2023-02-20T00:07:38;102502.0;;;9.92;67.3
64019;BME280;66942;52.138;5.216;2023-02-20T00:09:16;102494.0;;;10.0;67.02
64019;BME280;66942;52.138;5.216;2023-02-20T00:10:53;102493.0;;;10.03;66.8
64019;BME280;66942;52.138;5.216;2023-02-20T00:12:29;102502.0;;;10.06;66.94
64019;BME280;66942;52.138;5.216;2023-02-20T00:15:43;102514.00000000001;;;9.93;67.24
64019;BME280;66942;52.138;5.216;2023-02-20T00:17:20;102532.0;;;9.97;67.37
64019;BME280;66942;52.138;5.216;2023-02-20T00:18:56;102517.0;;;9.98;67.31
64019;BME280;66942;52.138;5.216;2023-02-20T00:22:12;102508.0;;;10.05;67.28
64019;BME280;66942;52.138;5.216;2023-02-20T00:23:48;102501.0;;;10.1;66.99
64019;BME280;66942;52.138;5.216;2023-02-20T00:25:25;102499.0;;;10.03;67.06
64019;BME280;66942;52.138;5.216;2023-02-20T00:28:40;102495.0;;;10.17;66.86
64019;BME280;66942;52.138;5.216;2023-02-20T00:30:20;102492.0;;;10.18;66.62
64019;BME280;66942;52.138;5.216;2023-02-20T00:31:57;102490.00000000001;;;10.15;66.69
64019;BME280;66942;52.138;5.216;2023-02-20T00:33:36;102481.0;;;10.09;67.05
64019;BME280;66942;52.138;5.216;2023-02-20T00:36:49;102488.00000000001;;;9.89;67.41
64019;BME280;66942;52.138;5.216;2023-02-20T00:38:27;102483.99999999999;;;9.97;67.42
64019;BME280;66942;52.138;5.216;2023-02-20T00:40:05;102470.0;;;10.06;67.11
64019;BME280;66942;52.138;5.216;2023-02-20T00:43:19;102475.0;;;10.02;67.3
64019;BME280;66942;52.138;5.216;2023-02-20T00:44:56;102471.0;;;9.98;67.41
64019;BME280;66942;52.138;5.216;2023-02-20T00:46:33;102471.0;;;10.06;67.1
64019;BME280;66942;52.138;5.216;2023-02-20T00:48:11;102473.0;;;10.05;67.1
64019;BME280;66942;52.138;5.216;2023-02-20T00:51:24;102468.0;;;10.07;67.19
64019;BME280;66942;52.138;5.216;2023-02-20T00:53:02;102466.00000000001;;;10.09;66.99
64019;BME280;66942;52.138;5.216;2023-02-20T00:54:39;102469.0;;;10.06;67.14
64019;BME280;66942;52.138;5.216;2023-02-20T00:57:52;102464.00000000001;;;10.02;67.23
64019;BME280;66942;52.138;5.216;2023-02-20T00:59:29;102458.0;;;9.99;67.34
64019;BME280;66942;52.138;5.216;2023-02-20T01:01:05;102463.00000000001;;;10.07;67.11
64019;BME280;66942;52.138;5.216;2023-02-20T01:02:42;102463.00000000001;;;9.88;67.55
64019;BME280;66942;52.138;5.216;2023-02-20T01:05:56;102457.0;;;10.11;66.99
64019;BME280;66942;52.138;5.216;2023-02-20T01:07:33;102457.0;;;10.02;67.13
64019;BME280;66942;52.138;5.216;2023-02-20T01:09:11;102443.0;;;10.06;66.87
64019;BME280;66942;52.138;5.216;2023-02-20T01:12:26;102428.0;;;9.85;67.3
64019;BME280;66942;52.138;5.216;2023-02-20T01:14:03;102418.0;;;9.98;67.16
64019;BME280;66942;52.138;5.216;2023-02-20T01:15:39;102397.0;;;9.81;67.81
64019;BME280;66942;52.138;5.216;2023-02-20T01:18:52;102388.0;;;9.72;68.11
64019;BME280;66942;52.138;5.216;2023-02-20T01:20:29;102392.0;;;9.89;67.55
64019;BME280;66942;52.138;5.216;2023-02-20T01:22:07;102382.0;;;9.89;67.55
64019;BME280;66942;52.138;5.216;2023-02-20T01:23:44;102380.0;;;9.85;67.67
64019;BME280;66942;52.138;5.216;2023-02-20T01:26:58;102377.0;;;9.81;67.8
64019;BME280;66942;52.138;5.216;2023-02-20T01:28:35;102380.0;;;9.83;67.69
64019;BME280;66942;52.138;5.216;2023-02-20T01:30:12;102382.0;;;9.82;67.77
64019;BME280;66942;52.138;5.216;2023-02-20T01:33:27;102389.0;;;9.84;67.66
64019;BME280;66942;52.138;5.216;2023-02-20T01:35:05;102399.0;;;9.81;67.83
64019;BME280;66942;52.138;5.216;2023-02-20T01:36:46;102389.0;;;9.73;67.84
64019;BME280;66942;52.138;5.216;2023-02-20T01:38:24;102389.0;;;9.6;68.47
64019;BME280;66942;52.138;5.216;2023-02-20T01:41:39;102386.0;;;9.52;68.91
64019;BME280;66942;52.138;5.216;2023-02-20T01:43:16;102384.0;;;9.42;69.31
64019;BME280;66942;52.138;5.216;2023-02-20T01:44:53;102385.0;;;9.52;69.36
64019;BME280;66942;52.138;5.216;2023-02-20T01:48:26;102390.0;;;9.65;69.02
64019;BME280;66942;52.138;5.216;2023-02-20T01:50:05;102392.0;;;9.73;68.73
64019;BME280;66942;52.138;5.216;2023-02-20T01:51:45;102391.0;;;9.64;69.27
64019;BME280;66942;52.138;5.216;2023-02-20T01:53:27;102388.0;;;9.73;69.24
64019;BME280;66942;52.138;5.216;2023-02-20T01:55:10;102375.0;;;9.56;69.89
64019;BME280;66942;52.138;5.216;2023-02-20T01:58:30;102383.0;;;9.64;69.69
64019;BME280;66942;52.138;5.216;2023-02-20T02:00:16;102389.0;;;9.39;70.7
64019;BME280;66942;52.138;5.216;2023-02-20T02:01:53;102387.0;;;9.84;69.61
64019;BME280;66942;52.138;5.216;2023-02-20T02:03:32;102380.0;;;9.83;69.67
64019;BME280;66942;52.138;5.216;2023-02-20T02:06:51;102383.0;;;10.0;69.31
64019;BME280;66942;52.138;5.216;2023-02-20T02:08:29;102369.0;;;9.89;69.33
64019;BME280;66942;52.138;5.216;2023-02-20T02:10:12;102361.0;;;10.01;69.33
64019;BME280;66942;52.138;5.216;2023-02-20T02:11:50;102364.0;;;9.98;69.5
64019;BME280;66942;52.138;5.216;2023-02-20T02:15:12;102366.0;;;9.84;69.81
64019;BME280;66942;52.138;5.216;2023-02-20T02:17:02;102361.0;;;9.93;69.69
64019;BME280;66942;52.138;5.216;2023-02-20T02:18:51;102362.0;;;9.82;70.0
64019;BME280;66942;52.138;5.216;2023-02-20T02:28:46;102373.0;;;10.21;69.27
64019;BME280;66942;52.138;5.216;2023-02-20T02:30:45;102361.0;;;10.1;69.55
64019;BME280;66942;52.138;5.216;2023-02-20T02:31:31;102363.0;;;10.19;69.47
64019;BME280;66942;52.138;5.216;2023-02-20T02:32:32;102363.0;;;10.19;69.47
64019;BME280;66942;52.138;5.216;2023-02-20T02:33:31;102352.0;;;10.23;69.53
64019;BME280;66942;52.138;5.216;2023-02-20T02:34:30;102352.0;;;10.23;69.53
64019;BME280;66942;52.138;5.216;2023-02-20T02:35:24;102353.0;;;10.16;69.83
64019;BME280;66942;52.138;5.216;2023-02-20T02:36:30;102353.0;;;10.16;69.83
64019;BME280;66942;52.138;5.216;2023-02-20T02:38:36;102350.0;;;10.28;69.61
64019;BME280;66942;52.138;5.216;2023-02-20T02:40:25;102344.0;;;10.38;69.28
64019;BME280;66942;52.138;5.216;2023-02-20T02:42:13;102341.0;;;10.32;69.52
64019;BME280;66942;52.138;5.216;2023-02-20T02:43:58;102338.0;;;10.36;69.69
64019;BME280;66942;52.138;5.216;2023-02-20T02:45:41;102340.0;;;10.49;69.33
64019;BME280;66942;52.138;5.216;2023-02-20T02:47:24;102339.0;;;10.39;69.77
64019;BME280;66942;52.138;5.216;2023-02-20T02:50:48;102338.0;;;10.08;70.92
64019;BME280;66942;52.138;5.216;2023-02-20T02:53:01;102340.0;;;10.1;70.94
64019;BME280;66942;52.138;5.216;2023-02-20T02:54:38;102338.0;;;10.33;70.31
64019;BME280;66942;52.138;5.216;2023-02-20T02:56:32;102339.0;;;10.34;70.42
64019;BME280;66942;52.138;5.216;2023-02-20T02:58:10;102333.0;;;10.38;70.41
64019;BME280;66942;52.138;5.216;2023-02-20T03:01:32;102337.0;;;10.49;70.11
64019;BME280;66942;52.138;5.216;2023-02-20T03:03:17;102339.0;;;10.42;70.3
64019;BME280;66942;52.138;5.216;2023-02-20T03:04:57;102332.0;;;10.28;70.69
64019;BME280;66942;52.138;5.216;2023-02-20T03:06:38;102332.0;;;10.4;70.52
64019;BME280;66942;52.138;5.216;2023-02-20T03:08:32;102330.0;;;10.46;70.27
64019;BME280;66942;52.138;5.216;2023-02-20T03:12:00;102330.0;;;10.54;70.17
64019;BME280;66942;52.138;5.216;2023-02-20T03:16:00;102321.0;;;10.68;69.78
64019;BME280;66942;52.138;5.216;2023-02-20T03:17:39;102319.0;;;10.61;69.99
64019;BME280;66942;52.138;5.216;2023-02-20T03:19:26;102315.0;;;10.82;69.37
64019;BME280;66942;52.138;5.216;2023-02-20T03:21:12;102317.0;;;10.88;69.22
64019;BME280;66942;52.138;5.216;2023-02-20T03:22:54;102307.0;;;10.87;69.16
64019;BME280;66942;52.138;5.216;2023-02-20T03:26:37;102315.0;;;10.69;70.06
64019;BME280;66942;52.138;5.216;2023-02-20T03:28:18;102312.0;;;10.91;69.33
64019;BME280;66942;52.138;5.216;2023-02-20T03:29:58;102314.0;;;10.66;70.05
64019;BME280;66942;52.138;5.216;2023-02-20T03:31:41;102315.0;;;10.81;69.66
64019;BME280;66942;52.138;5.216;2023-02-20T03:44:25;102300.0;;;10.85;69.52
64019;BME280;66942;52.138;5.216;2023-02-20T03:46:05;102297.0;;;10.92;69.36
64019;BME280;66942;52.138;5.216;2023-02-20T03:49:31;102291.0;;;10.67;70.09
64019;BME280;66942;52.138;5.216;2023-02-20T03:52:53;102290.0;;;10.92;69.37
64019;BME280;66942;52.138;5.216;2023-02-20T03:54:32;102280.0;;;10.77;69.99
64019;BME280;66942;52.138;5.216;2023-02-20T03:57:57;102286.0;;;10.84;69.8
64019;BME280;66942;52.138;5.216;2023-02-20T03:59:39;102275.0;;;10.87;69.69
64019;BME280;66942;52.138;5.216;2023-02-20T04:01:19;102274.0;;;10.65;70.5
64019;BME280;66942;52.138;5.216;2023-02-20T04:03:02;102272.0;;;11.04;69.39
64019;BME280;66942;52.138;5.216;2023-02-20T04:04:45;102269.0;;;11.02;69.33
64019;BME280;66942;52.138;5.216;2023-02-20T04:08:09;102272.0;;;10.73;70.33
64019;BME280;66942;52.138;5.216;2023-02-20T04:09:48;102268.0;;;10.84;70.02
64019;BME280;66942;52.138;5.216;2023-02-20T04:11:30;102265.0;;;10.75;70.45
64019;BME280;66942;52.138;5.216;2023-02-20T04:13:10;102263.0;;;10.96;69.7
64019;BME280;66942;52.138;5.216;2023-02-20T04:16:31;102266.0;;;10.84;70.02
64019;BME280;66942;52.138;5.216;2023-02-20T04:18:14;102269.0;;;10.75;70.31
64019;BME280;66942;52.138;5.216;2023-02-20T04:19:53;102265.0;;;10.99;69.59
64019;BME280;66942;52.138;5.216;2023-02-20T04:21:34;102270.0;;;10.93;69.8
64019;BME280;66942;52.138;5.216;2023-02-20T04:24:56;102268.0;;;11.07;69.47
64019;BME280;66942;52.138;5.216;2023-02-20T04:26:36;102263.0;;;10.97;69.62
64019;BME280;66942;52.138;5.216;2023-02-20T04:28:14;102271.0;;;11.0;69.84
64019;BME280;66942;52.138;5.216;2023-02-20T04:29:52;102270.0;;;11.08;69.49
64019;BME280;66942;52.138;5.216;2023-02-20T04:33:09;102265.0;;;11.1;69.37
64019;BME280;66942;52.138;5.216;2023-02-20T04:34:45;102267.0;;;11.21;68.94
64019;BME280;66942;52.138;5.216;2023-02-20T04:36:23;102267.0;;;11.1;69.27
64019;BME280;66942;52.138;5.216;2023-02-20T04:39:37;102267.0;;;11.12;69.3
64019;BME280;66942;52.138;5.216;2023-02-20T04:41:14;102271.0;;;10.99;69.72
64019;BME280;66942;52.138;5.216;2023-02-20T04:42:52;102271.0;;;10.91;70.08
64019;BME280;66942;52.138;5.216;2023-02-20T04:44:33;102271.0;;;11.05;69.37
64019;BME280;66942;52.138;5.216;2023-02-20T04:47:46;102265.0;;;11.27;68.92
64019;BME280;66942;52.138;5.216;2023-02-20T04:49:23;102264.0;;;11.16;69.28
64019;BME280;66942;52.138;5.216;2023-02-20T04:51:00;102266.0;;;11.09;69.55
64019;BME280;66942;52.138;5.216;2023-02-20T04:54:14;102272.0;;;10.94;69.78
64019;BME280;66942;52.138;5.216;2023-02-20T04:55:51;102263.0;;;11.25;69.08
64019;BME280;66942;52.138;5.216;2023-02-20T04:57:28;102268.0;;;11.05;69.84
64019;BME280;66942;52.138;5.216;2023-02-20T05:00:43;102264.0;;;10.88;70.22
64019;BME280;66942;52.138;5.216;2023-02-20T05:02:20;102262.0;;;11.08;69.8
64019;BME280;66942;52.138;5.216;2023-02-20T05:03:57;102265.0;;;11.03;69.91
64019;BME280;66942;52.138;5.216;2023-02-20T05:05:34;102270.0;;;11.27;69.23
64019;BME280;66942;52.138;5.216;2023-02-20T05:08:48;102261.0;;;11.17;69.37
64019;BME280;66942;52.138;5.216;2023-02-20T05:10:26;102262.0;;;11.21;69.14
64019;BME280;66942;52.138;5.216;2023-02-20T05:12:04;102265.0;;;11.22;69.11
64019;BME280;66942;52.138;5.216;2023-02-20T05:15:17;102264.0;;;11.16;69.38
64019;BME280;66942;52.138;5.216;2023-02-20T05:16:55;102262.0;;;11.33;68.94
64019;BME280;66942;52.138;5.216;2023-02-20T05:18:32;102261.0;;;11.19;69.19
64019;BME280;66942;52.138;5.216;2023-02-20T05:20:10;102266.0;;;10.97;69.86
64019;BME280;66942;52.138;5.216;2023-02-20T05:24:00;102262.0;;;11.26;69.19
64019;BME280;66942;52.138;5.216;2023-02-20T05:25:36;102268.0;;;11.13;69.45
64019;BME280;66942;52.138;5.216;2023-02-20T05:27:15;102271.0;;;11.07;69.7
64019;BME280;66942;52.138;5.216;2023-02-20T05:28:53;102271.0;;;11.23;69.05
64019;BME280;66942;52.138;5.216;2023-02-20T05:30:30;102275.0;;;11.16;69.52
64019;BME280;66942;52.138;5.216;2023-02-20T05:33:43;102271.0;;;11.41;68.58
64019;BME280;66942;52.138;5.216;2023-02-20T05:35:21;102275.0;;;11.34;68.84
64019;BME280;66942;52.138;5.216;2023-02-20T05:36:58;102281.0;;;11.5;68.37
64019;BME280;66942;52.138;5.216;2023-02-20T05:40:11;102278.0;;;11.26;69.25
64019;BME280;66942;52.138;5.216;2023-02-20T05:41:48;102273.0;;;11.51;68.37
64019;BME280;66942;52.138;5.216;2023-02-20T05:43:24;102269.0;;;11.34;68.67
64019;BME280;66942;52.138;5.216;2023-02-20T05:46:41;102269.0;;;11.46;68.39
64019;BME280;66942;52.138;5.216;2023-02-20T05:48:18;102270.0;;;11.53;68.12
64019;BME280;66942;52.138;5.216;2023-02-20T05:49:55;102265.0;;;11.42;68.47
64019;BME280;66942;52.138;5.216;2023-02-20T05:51:31;102264.0;;;11.5;68.31
64019;BME280;66942;52.138;5.216;2023-02-20T05:54:45;102264.0;;;11.48;68.23
64019;BME280;66942;52.138;5.216;2023-02-20T05:56:22;102267.0;;;11.46;68.33
64019;BME280;66942;52.138;5.216;2023-02-20T05:57:59;102263.0;;;11.4;68.37
64019;BME280;66942;52.138;5.216;2023-02-20T06:01:17;102264.0;;;11.66;67.59
64019;BME280;66942;52.138;5.216;2023-02-20T06:02:54;102258.0;;;11.39;68.23
64019;BME280;66942;52.138;5.216;2023-02-20T06:04:30;102251.0;;;11.42;68.05
64019;BME280;66942;52.138;5.216;2023-02-20T06:06:06;102258.0;;;11.51;67.92
64019;BME280;66942;52.138;5.216;2023-02-20T06:09:20;102255.0;;;11.27;68.37
64019;BME280;66942;52.138;5.216;2023-02-20T06:10:56;102255.0;;;11.32;68.24
64019;BME280;66942;52.138;5.216;2023-02-20T06:12:33;102260.0;;;11.34;68.19
64019;BME280;66942;52.138;5.216;2023-02-20T06:15:47;102258.0;;;11.37;67.67
64019;BME280;66942;52.138;5.216;2023-02-20T06:17:24;102257.0;;;11.4;68.05
64019;BME280;66942;52.138;5.216;2023-02-20T06:19:01;102257.0;;;11.2;68.69
64019;BME280;66942;52.138;5.216;2023-02-20T06:22:15;102253.0;;;11.18;68.72
64019;BME280;66942;52.138;5.216;2023-02-20T06:23:53;102259.0;;;11.29;68.31
64019;BME280;66942;52.138;5.216;2023-02-20T06:25:29;102251.0;;;11.12;68.8
64019;BME280;66942;52.138;5.216;2023-02-20T06:27:07;102255.0;;;11.16;68.55
64019;BME280;66942;52.138;5.216;2023-02-20T06:30:20;102262.0;;;11.24;68.44
64019;BME280;66942;52.138;5.216;2023-02-20T06:31:58;102265.0;;;11.4;68.02
64019;BME280;66942;52.138;5.216;2023-02-20T06:33:34;102261.0;;;11.45;67.78
64019;BME280;66942;52.138;5.216;2023-02-20T06:36:49;102260.0;;;11.33;68.08
64019;BME280;66942;52.138;5.216;2023-02-20T06:40:05;102262.0;;;11.61;67.22
64019;BME280;66942;52.138;5.216;2023-02-20T06:41:42;102256.0;;;11.33;68.02
64019;BME280;66942;52.138;5.216;2023-02-20T06:44:56;102255.0;;;11.42;67.69
64019;BME280;66942;52.138;5.216;2023-02-20T06:46:33;102255.0;;;11.26;68.23
64019;BME280;66942;52.138;5.216;2023-02-20T06:48:11;102250.0;;;11.51;67.45
64019;BME280;66942;52.138;5.216;2023-02-20T06:51:26;102255.0;;;11.57;67.39
64019;BME280;66942;52.138;5.216;2023-02-20T06:53:03;102257.0;;;11.51;67.66
64019;BME280;66942;52.138;5.216;2023-02-20T06:54:42;102259.0;;;11.42;67.95
64019;BME280;66942;52.138;5.216;2023-02-20T06:56:21;102268.0;;;11.44;67.83
64019;BME280;66942;52.138;5.216;2023-02-20T06:59:43;102266.0;;;11.26;68.31
64019;BME280;66942;52.138;5.216;2023-02-20T07:01:21;102270.0;;;11.48;67.88
64019;BME280;66942;52.138;5.216;2023-02-20T07:02:59;102258.0;;;11.5;67.64
64019;BME280;66942;52.138;5.216;2023-02-20T07:04:37;102255.0;;;11.41;68.05
64019;BME280;66942;52.138;5.216;2023-02-20T07:07:51;102258.0;;;11.04;68.99
64019;BME280;66942;52.138;5.216;2023-02-20T07:09:28;102268.0;;;11.33;68.23
64019;BME280;66942;52.138;5.216;2023-02-20T07:11:05;102257.0;;;11.24;68.52
64019;BME280;66942;52.138;5.216;2023-02-20T07:14:19;102263.0;;;11.21;68.48
64019;BME280;66942;52.138;5.216;2023-02-20T07:15:56;102259.0;;;11.26;68.36
64019;BME280;66942;52.138;5.216;2023-02-20T07:17:33;102267.0;;;11.32;68.48
64019;BME280;66942;52.138;5.216;2023-02-20T07:20:48;102266.0;;;11.39;68.23
64019;BME280;66942;52.138;5.216;2023-02-20T07:22:27;102266.0;;;11.41;67.77
64019;BME280;66942;52.138;5.216;2023-02-20T07:24:04;102266.0;;;11.06;69.02
64019;BME280;66942;52.138;5.216;2023-02-20T07:25:42;102270.0;;;11.3;68.52
64019;BME280;66942;52.138;5.216;2023-02-20T07:28:58;102270.0;;;11.53;67.83
64019;BME280;66942;52.138;5.216;2023-02-20T07:30:35;102273.0;;;11.58;67.74
64019;BME280;66942;52.138;5.216;2023-02-20T07:32:12;102273.0;;;11.47;67.84
64019;BME280;66942;52.138;5.216;2023-02-20T07:35:26;102269.0;;;11.44;68.03
64019;BME280;66942;52.138;5.216;2023-02-20T07:37:02;102270.0;;;11.47;67.92
64019;BME280;66942;52.138;5.216;2023-02-20T07:38:40;102277.0;;;11.63;67.72
64019;BME280;66942;52.138;5.216;2023-02-20T07:40:18;102283.0;;;11.73;67.34
64019;BME280;66942;52.138;5.216;2023-02-20T07:43:32;102272.0;;;11.83;67.08
64019;BME280;66942;52.138;5.216;2023-02-20T07:45:09;102278.0;;;11.66;67.44
64019;BME280;66942;52.138;5.216;2023-02-20T07:46:46;102282.0;;;11.6;67.88
64019;BME280;66942;52.138;5.216;2023-02-20T07:49:59;102275.0;;;11.54;68.17
64019;BME280;66942;52.138;5.216;2023-02-20T07:51:35;102278.0;;;11.59;67.89
64019;BME280;66942;52.138;5.216;2023-02-20T07:53:13;102281.0;;;11.71;67.53
64019;BME280;66942;52.138;5.216;2023-02-20T07:54:51;102280.0;;;11.83;67.2
64019;BME280;66942;52.138;5.216;2023-02-20T07:58:04;102269.0;;;11.77;67.41
64019;BME280;66942;52.138;5.216;2023-02-20T07:59:41;102272.0;;;11.66;67.8
64019;BME280;66942;52.138;5.216;2023-02-20T08:01:18;102269.0;;;11.61;67.95
64019;BME280;66942;52.138;5.216;2023-02-20T08:04:31;102277.0;;;11.58;68.08
64019;BME280;66942;52.138;5.216;2023-02-20T08:06:07;102271.0;;;11.69;68.19
64019;BME280;66942;52.138;5.216;2023-02-20T08:07:44;102269.0;;;11.64;68.0
64019;BME280;66942;52.138;5.216;2023-02-20T08:10:57;102267.0;;;11.53;68.25
64019;BME280;66942;52.138;5.216;2023-02-20T08:12:34;102259.0;;;11.4;68.69
64019;BME280;66942;52.138;5.216;2023-02-20T08:14:13;102266.0;;;11.62;68.2
64019;BME280;66942;52.138;5.216;2023-02-20T08:15:49;102265.0;;;11.62;68.37
64019;BME280;66942;52.138;5.216;2023-02-20T08:19:02;102268.0;;;11.56;68.41
64019;BME280;66942;52.138;5.216;2023-02-20T08:20:38;102266.0;;;11.88;67.64
64019;BME280;66942;52.138;5.216;2023-02-20T08:22:14;102270.0;;;11.98;67.33
64019;BME280;66942;52.138;5.216;2023-02-20T08:25:27;102280.0;;;11.67;68.22
64019;BME280;66942;52.138;5.216;2023-02-20T08:27:05;102274.0;;;11.83;67.87
64019;BME280;66942;52.138;5.216;2023-02-20T08:28:41;102280.0;;;11.82;67.69
64019;BME280;66942;52.138;5.216;2023-02-20T08:31:58;102266.0;;;11.91;67.78
64019;BME280;66942;52.138;5.216;2023-02-20T08:33:34;102264.0;;;11.83;67.95
64019;BME280;66942;52.138;5.216;2023-02-20T08:35:11;102262.0;;;11.67;68.25
64019;BME280;66942;52.138;5.216;2023-02-20T08:36:47;102252.0;;;11.89;67.86
64019;BME280;66942;52.138;5.216;2023-02-20T08:40:08;102258.0;;;11.86;67.91
64019;BME280;66942;52.138;5.216;2023-02-20T08:41:46;102250.0;;;11.82;67.97
64019;BME280;66942;52.138;5.216;2023-02-20T08:43:23;102253.0;;;12.02;67.69
64019;BME280;66942;52.138;5.216;2023-02-20T08:46:36;102249.0;;;12.12;67.41
64019;BME280;66942;52.138;5.216;2023-02-20T08:48:12;102249.0;;;12.06;67.56
64019;BME280;66942;52.138;5.216;2023-02-20T08:49:48;102246.0;;;12.11;67.41
64019;BME280;66942;52.138;5.216;2023-02-20T08:51:25;102244.0;;;11.95;67.66
64019;BME280;66942;52.138;5.216;2023-02-20T08:54:37;102251.0;;;12.33;66.83
64019;BME280;66942;52.138;5.216;2023-02-20T08:56:17;102256.0;;;12.24;67.02
64019;BME280;66942;52.138;5.216;2023-02-20T08:57:55;102255.0;;;12.4;66.66
64019;BME280;66942;52.138;5.216;2023-02-20T09:01:07;102261.0;;;12.34;66.69
64019;BME280;66942;52.138;5.216;2023-02-20T09:02:45;102253.0;;;12.26;66.94
64019;BME280;66942;52.138;5.216;2023-02-20T09:04:23;102251.0;;;12.1;67.33
64019;BME280;66942;52.138;5.216;2023-02-20T09:05:59;102252.0;;;12.13;67.49
64019;BME280;66942;52.138;5.216;2023-02-20T09:09:12;102241.0;;;12.28;67.27
64019;BME280;66942;52.138;5.216;2023-02-20T09:10:48;102248.0;;;11.84;68.03
64019;BME280;66942;52.138;5.216;2023-02-20T09:12:24;102249.0;;;12.08;67.77
64019;BME280;66942;52.138;5.216;2023-02-20T09:15:39;102252.0;;;12.18;67.39
64019;BME280;66942;52.138;5.216;2023-02-20T09:17:15;102252.0;;;12.25;67.27
64019;BME280;66942;52.138;5.216;2023-02-20T09:18:54;102248.0;;;12.04;67.38
64019;BME280;66942;52.138;5.216;2023-02-20T09:22:07;102253.0;;;12.09;67.56
64019;BME280;66942;52.138;5.216;2023-02-20T09:23:44;102256.0;;;12.15;67.25
64019;BME280;66942;52.138;5.216;2023-02-20T09:25:21;102235.0;;;11.93;67.87
64019;BME280;66942;52.138;5.216;2023-02-20T09:26:57;102245.0;;;12.19;67.25
64019;BME280;66942;52.138;5.216;2023-02-20T09:30:15;102259.0;;;11.97;67.72
64019;BME280;66942;52.138;5.216;2023-02-20T09:31:52;102259.0;;;12.13;67.49
64019;BME280;66942;52.138;5.216;2023-02-20T09:33:29;102253.0;;;11.96;67.97
64019;BME280;66942;52.138;5.216;2023-02-20T09:36:41;102249.0;;;12.09;67.62
64019;BME280;66942;52.138;5.216;2023-02-20T09:38:17;102250.0;;;12.26;67.27
64019;BME280;66942;52.138;5.216;2023-02-20T09:39:53;102258.0;;;12.25;66.92
64019;BME280;66942;52.138;5.216;2023-02-20T09:43:29;102257.0;;;12.09;67.33
64019;BME280;66942;52.138;5.216;2023-02-20T09:45:18;102255.0;;;12.01;67.45
64019;BME280;66942;52.138;5.216;2023-02-20T09:47:02;102263.0;;;12.16;67.14
64019;BME280;66942;52.138;5.216;2023-02-20T09:48:56;102262.0;;;12.15;67.31
64019;BME280;66942;52.138;5.216;2023-02-20T09:50:47;102259.0;;;12.39;66.74
64019;BME280;66942;52.138;5.216;2023-02-20T09:52:28;102266.0;;;12.31;66.87
64019;BME280;66942;52.138;5.216;2023-02-20T09:54:07;102270.0;;;12.15;66.91
64019;BME280;66942;52.138;5.216;2023-02-20T09:57:26;102268.0;;;12.27;66.67
64019;BME280;66942;52.138;5.216;2023-02-20T09:59:09;102260.0;;;12.48;66.31
64019;BME280;66942;52.138;5.216;2023-02-20T10:00:49;102256.0;;;12.27;66.89
64019;BME280;66942;52.138;5.216;2023-02-20T10:02:29;102256.0;;;12.09;67.12
64019;BME280;66942;52.138;5.216;2023-02-20T10:05:49;102244.0;;;12.29;66.75
64019;BME280;66942;52.138;5.216;2023-02-20T10:07:27;102246.0;;;12.18;67.08
64019;BME280;66942;52.138;5.216;2023-02-20T10:09:09;102248.0;;;12.13;67.25
64019;BME280;66942;52.138;5.216;2023-02-20T10:10:49;102240.0;;;12.28;67.02
64019;BME280;66942;52.138;5.216;2023-02-20T10:14:22;102246.0;;;12.37;66.83
64019;BME280;66942;52.138;5.216;2023-02-20T10:16:18;102249.0;;;12.58;66.28
64019;BME280;66942;52.138;5.216;2023-02-20T10:18:06;102248.0;;;12.43;66.52
64019;BME280;66942;52.138;5.216;2023-02-20T10:19:55;102255.0;;;12.51;66.24
64019;BME280;66942;52.138;5.216;2023-02-20T10:21:46;102249.0;;;12.59;65.95
64019;BME280;66942;52.138;5.216;2023-02-20T10:23:37;102247.0;;;12.34;66.48
64019;BME280;66942;52.138;5.216;2023-02-20T10:27:16;102259.0;;;12.45;66.28
64019;BME280;66942;52.138;5.216;2023-02-20T10:29:02;102255.0;;;12.43;66.44
64019;BME280;66942;52.138;5.216;2023-02-20T10:30:55;102244.0;;;12.47;66.27
64019;BME280;66942;52.138;5.216;2023-02-20T10:32:39;102253.0;;;12.31;66.95
64019;BME280;66942;52.138;5.216;2023-02-20T10:34:22;102255.0;;;12.53;66.19
64019;BME280;66942;52.138;5.216;2023-02-20T10:36:09;102256.0;;;12.38;66.66
64019;BME280;66942;52.138;5.216;2023-02-20T10:39:31;102251.0;;;12.51;65.98
64019;BME280;66942;52.138;5.216;2023-02-20T10:41:15;102225.0;;;12.31;66.67
64019;BME280;66942;52.138;5.216;2023-02-20T10:43:00;102223.0;;;12.35;66.63
64019;BME280;66942;52.138;5.216;2023-02-20T10:44:44;102224.0;;;12.15;67.0
64019;BME280;66942;52.138;5.216;2023-02-20T10:46:28;102237.0;;;12.56;66.16
64019;BME280;66942;52.138;5.216;2023-02-20T10:49:54;102238.0;;;12.45;66.52
64019;BME280;66942;52.138;5.216;2023-02-20T10:51:34;102234.0;;;12.46;66.19
64019;BME280;66942;52.138;5.216;2023-02-20T10:53:24;102234.0;;;12.11;67.16
64019;BME280;66942;52.138;5.216;2023-02-20T10:55:07;102238.0;;;12.43;66.44
64019;BME280;66942;52.138;5.216;2023-02-20T10:58:37;102243.0;;;12.38;66.33
64019;BME280;66942;52.138;5.216;2023-02-20T11:00:19;102267.0;;;12.42;66.19
64019;BME280;66942;52.138;5.216;2023-02-20T11:01:59;102256.0;;;12.55;66.02
64019;BME280;66942;52.138;5.216;2023-02-20T11:03:44;102247.0;;;12.67;65.66
64019;BME280;66942;52.138;5.216;2023-02-20T11:05:24;102247.0;;;12.55;65.84
64019;BME280;66942;52.138;5.216;2023-02-20T11:08:47;102237.0;;;12.22;66.42
64019;BME280;66942;52.138;5.216;2023-02-20T11:10:23;102242.0;;;12.42;65.95
64019;BME280;66942;52.138;5.216;2023-02-20T11:12:01;102252.0;;;12.48;66.11
64019;BME280;66942;52.138;5.216;2023-02-20T11:13:37;102241.0;;;12.42;66.33
64019;BME280;66942;52.138;5.216;2023-02-20T11:16:58;102234.0;;;12.51;65.99
64019;BME280;66942;52.138;5.216;2023-02-20T11:18:37;102233.0;;;12.57;65.98
64019;BME280;66942;52.138;5.216;2023-02-20T11:20:39;102250.0;;;12.69;65.41